createdAt,value
2023-03-22T00:02:26.231Z,3.70
2023-03-22T00:05:30.324Z,3.27
2023-03-22T00:08:32.083Z,3.77
2023-03-22T00:11:34.543Z,3.20
2023-03-22T00:14:36.471Z,3.07
2023-03-22T00:17:38.268Z,2.97
2023-03-22T00:20:47.701Z,3.00
2023-03-22T00:23:49.429Z,3.43
2023-03-22T00:26:51.236Z,4.20
2023-03-22T00:29:53.864Z,3.80
2023-03-22T00:32:55.729Z,3.83
2023-03-22T00:36:00.200Z,4.27
2023-03-22T00:39:01.916Z,3.83
2023-03-22T00:42:05.817Z,4.00
2023-03-22T00:45:10.463Z,5.10
2023-03-22T00:48:12.343Z,4.67
2023-03-22T00:51:15.481Z,4.10
2023-03-22T00:54:17.757Z,4.50
2023-03-22T00:57:19.862Z,4.27
2023-03-22T01:00:21.675Z,4.30
2023-03-22T01:03:24.574Z,4.33
2023-03-22T01:06:27.220Z,3.93
2023-03-22T01:09:31.111Z,3.83
2023-03-22T01:12:32.844Z,3.70
2023-03-22T01:15:34.638Z,3.93
2023-03-22T01:18:37.443Z,4.53
2023-03-22T01:21:39.786Z,3.80
2023-03-22T01:24:41.510Z,4.63
2023-03-22T01:27:43.550Z,4.20
2023-03-22T01:30:45.470Z,4.33
2023-03-22T01:33:47.377Z,4.20
2023-03-22T01:36:50.434Z,4.53
2023-03-22T01:39:52.349Z,5.20
2023-03-22T01:42:55.702Z,4.33
2023-03-22T01:45:58.392Z,4.97
2023-03-22T01:49:06.305Z,4.47
2023-03-22T01:52:13.042Z,4.27
2023-03-22T01:55:38.223Z,5.00
2023-03-22T01:58:48.200Z,4.17
2023-03-22T02:01:53.770Z,4.40
2023-03-22T02:04:57.839Z,4.57
2023-03-22T02:08:03.050Z,3.93
2023-03-22T02:11:18.738Z,4.83
2023-03-22T02:14:30.228Z,4.93
2023-03-22T02:18:21.366Z,4.53
2023-03-22T02:21:51.838Z,4.77
2023-03-22T02:24:56.831Z,4.73
2023-03-22T02:28:08.086Z,3.63
2023-03-22T02:31:48.944Z,4.83
2023-03-22T02:35:07.278Z,4.47
2023-03-22T02:38:22.841Z,4.47
2023-03-22T02:41:33.342Z,4.97
2023-03-22T02:44:49.903Z,4.30
2023-03-22T02:47:54.137Z,4.63
2023-03-22T02:51:03.802Z,4.40
2023-03-22T02:54:11.632Z,5.17
2023-03-22T02:57:22.267Z,5.30
2023-03-22T03:00:25.901Z,4.87
2023-03-22T03:03:30.050Z,5.13
2023-03-22T03:06:38.905Z,4.90
2023-03-22T03:09:42.822Z,5.20
2023-03-22T03:12:46.114Z,4.73
2023-03-22T03:15:59.042Z,4.37
2023-03-22T03:19:10.883Z,4.37
2023-03-22T03:22:52.863Z,4.83
2023-03-22T03:26:03.877Z,4.47
2023-03-22T03:29:21.068Z,5.57
2023-03-22T03:32:28.526Z,4.67
2023-03-22T03:35:37.579Z,5.17
2023-03-22T03:38:43.968Z,5.10
2023-03-22T03:41:49.640Z,4.50
2023-03-22T03:44:51.504Z,5.37
2023-03-22T03:47:57.951Z,5.07
2023-03-22T03:51:01.867Z,4.73
2023-03-22T03:54:04.033Z,4.57
2023-03-22T03:57:05.900Z,5.07
2023-03-22T04:00:09.328Z,5.00
2023-03-22T04:03:40.372Z,5.17
2023-03-22T04:06:47.698Z,4.77
2023-03-22T04:09:55.577Z,5.40
2023-03-22T04:13:02.013Z,4.53
2023-03-22T04:16:03.979Z,4.43
2023-03-22T04:19:09.793Z,5.03
2023-03-22T04:22:14.618Z,5.27
2023-03-22T04:25:18.139Z,5.47
2023-03-22T04:28:30.011Z,4.83
2023-03-22T04:31:33.936Z,5.43
2023-03-22T04:34:43.114Z,5.60
2023-03-22T04:37:48.718Z,5.43
2023-03-22T04:40:52.982Z,4.63
2023-03-22T04:44:05.295Z,5.20
2023-03-22T04:47:09.683Z,5.20
2023-03-22T04:50:12.124Z,5.07
2023-03-22T04:53:27.152Z,4.93
2023-03-22T04:56:32.321Z,4.83
2023-03-22T04:59:35.211Z,4.83
2023-03-22T05:02:41.432Z,4.50
2023-03-22T05:05:53.568Z,4.63
2023-03-22T05:08:57.194Z,4.70
2023-03-22T05:11:59.111Z,4.80
2023-03-22T05:15:19.685Z,4.50
2023-03-22T05:18:26.752Z,5.10
2023-03-22T05:21:36.676Z,4.57
2023-03-22T05:24:39.804Z,5.10
2023-03-22T05:27:46.060Z,4.50
2023-03-22T05:31:06.044Z,3.93
2023-03-22T05:34:17.248Z,3.83
2023-03-22T05:37:21.081Z,4.83
2023-03-22T05:40:27.751Z,3.93
2023-03-22T05:43:30.245Z,3.83
2023-03-22T05:46:32.134Z,3.80
2023-03-22T05:49:52.556Z,3.30
2023-03-22T05:52:57.696Z,4.37
2023-03-22T05:56:10.028Z,2.60
2023-03-22T05:59:13.337Z,3.40
2023-03-22T06:02:15.647Z,2.43
2023-03-22T06:05:18.342Z,3.03
2023-03-22T06:08:22.591Z,2.97
2023-03-22T06:11:25.601Z,2.37
2023-03-22T06:14:28.677Z,2.50
2023-03-22T06:18:03.148Z,2.13
2023-03-22T06:21:10.127Z,2.40
2023-03-22T06:24:12.541Z,2.47
2023-03-22T06:27:14.751Z,2.40
2023-03-22T06:30:16.611Z,2.57
2023-03-22T06:33:55.845Z,2.70
2023-03-22T06:37:02.664Z,2.43
2023-03-22T06:40:13.903Z,4.70
2023-03-22T06:43:15.660Z,5.90
2023-03-22T06:46:20.776Z,3.50
2023-03-22T06:49:32.002Z,2.13
2023-03-22T06:52:34.645Z,2.33
2023-03-22T06:55:37.355Z,1.80
2023-03-22T06:58:49.152Z,2.33
2023-03-22T07:01:50.950Z,2.20
2023-03-22T07:04:52.929Z,2.43
2023-03-22T07:07:54.786Z,2.40
2023-03-22T07:10:57.207Z,2.53
2023-03-22T07:13:59.188Z,1.90
2023-03-22T07:17:07.032Z,2.10
2023-03-22T07:20:09.535Z,2.03
2023-03-22T07:23:11.430Z,2.33
2023-03-22T07:26:26.238Z,1.97
2023-03-22T07:29:30.422Z,1.50
2023-03-22T07:32:33.710Z,2.03
2023-03-22T07:35:41.346Z,2.07
2023-03-22T07:38:43.583Z,1.60
2023-03-22T07:41:51.647Z,1.70
2023-03-22T07:44:56.082Z,1.90
2023-03-22T07:47:57.952Z,1.70
2023-03-22T07:51:16.966Z,1.83
2023-03-22T07:54:32.591Z,1.93
2023-03-22T07:57:36.889Z,1.87
2023-03-22T08:00:38.913Z,2.13
2023-03-22T08:03:59.362Z,2.13
2023-03-22T08:07:11.470Z,1.87
2023-03-22T08:10:13.257Z,2.03
2023-03-22T08:13:15.411Z,1.27
2023-03-22T08:16:17.335Z,2.00
2023-03-22T08:19:19.507Z,1.80
2023-03-22T08:22:25.808Z,1.50
2023-03-22T08:25:51.116Z,1.20
2023-03-22T08:28:53.119Z,1.60
2023-03-22T08:31:56.003Z,1.33
2023-03-22T08:34:58.324Z,1.50
2023-03-22T08:38:01.234Z,1.47
2023-03-22T08:41:12.698Z,1.17
2023-03-22T08:44:14.625Z,2.00
2023-03-22T08:47:16.665Z,1.83
2023-03-22T08:50:19.335Z,1.03
2023-03-22T08:53:31.416Z,1.17
2023-03-22T08:56:53.550Z,1.63
2023-03-22T09:00:11.026Z,1.30
2023-03-22T09:03:19.863Z,1.00
2023-03-22T09:06:21.723Z,1.20
2023-03-22T09:09:23.580Z,1.10
2023-03-22T09:12:29.642Z,1.20
2023-03-22T09:15:31.789Z,1.30
2023-03-22T09:18:47.785Z,0.97
2023-03-22T09:21:52.709Z,1.40
2023-03-22T09:25:07.313Z,1.10
2023-03-22T09:28:10.176Z,1.30
2023-03-22T09:31:12.184Z,1.10
2023-03-22T09:34:16.162Z,1.60
2023-03-22T09:37:19.802Z,1.03
2023-03-22T09:40:31.705Z,0.90
2023-03-22T09:43:37.746Z,1.00
2023-03-22T09:46:44.559Z,1.47
2023-03-22T09:49:53.647Z,1.20
2023-03-22T09:52:56.054Z,1.30
2023-03-22T09:56:07.595Z,1.13
2023-03-22T09:59:30.477Z,0.90
2023-03-22T10:02:37.759Z,1.10
2023-03-22T10:05:47.273Z,1.53
2023-03-22T10:09:06.825Z,1.20
2023-03-22T10:12:23.513Z,1.10
2023-03-22T10:15:41.322Z,1.20
2023-03-22T10:18:51.112Z,1.27
2023-03-22T10:21:55.269Z,1.47
2023-03-22T10:24:58.163Z,1.20
2023-03-22T10:28:00.093Z,1.30
2023-03-22T10:31:04.408Z,1.17
2023-03-22T10:34:17.246Z,1.80
2023-03-22T10:37:29.295Z,1.90
2023-03-22T10:40:36.246Z,1.73
2023-03-22T10:43:40.786Z,1.83
2023-03-22T10:46:43.121Z,1.63
2023-03-22T10:49:51.468Z,1.73
2023-03-22T10:52:59.358Z,1.47
2023-03-22T10:56:01.100Z,1.53
2023-03-22T10:59:02.929Z,2.00
2023-03-22T11:02:04.736Z,2.00
2023-03-22T11:05:07.169Z,1.20
2023-03-22T11:08:14.281Z,1.87
2023-03-22T11:11:26.332Z,1.33
2023-03-22T11:14:35.298Z,1.30
2023-03-22T11:17:37.647Z,1.63
2023-03-22T11:20:52.564Z,1.37
2023-03-22T11:24:05.425Z,1.57
2023-03-22T11:27:26.643Z,1.07
2023-03-22T11:30:29.992Z,1.80
2023-03-22T11:33:33.241Z,1.20
2023-03-22T11:36:44.082Z,1.00
2023-03-22T11:39:49.340Z,1.30
2023-03-22T11:43:23.054Z,1.60
2023-03-22T11:46:25.367Z,1.57
2023-03-22T11:49:49.406Z,1.97
2023-03-22T11:52:52.454Z,1.60
2023-03-22T11:55:57.266Z,1.63
2023-03-22T11:59:17.037Z,1.97
2023-03-22T12:02:29.753Z,1.90
2023-03-22T12:05:34.202Z,2.20
2023-03-22T12:08:47.470Z,2.07
2023-03-22T12:11:56.028Z,2.27
2023-03-22T12:15:04.599Z,2.33
2023-03-22T12:18:13.604Z,1.57
2023-03-22T12:21:15.820Z,1.93
2023-03-22T12:24:33.096Z,1.30
2023-03-22T12:27:38.712Z,1.30
2023-03-22T12:30:53.564Z,1.57
2023-03-22T12:33:58.318Z,1.33
2023-03-22T12:37:03.244Z,1.10
2023-03-22T12:40:08.508Z,1.10
2023-03-22T12:43:31.926Z,1.40
2023-03-22T12:46:38.790Z,1.20
2023-03-22T12:49:46.123Z,1.00
2023-03-22T12:52:56.541Z,1.50
2023-03-22T12:56:00.765Z,1.00
2023-03-22T12:59:06.401Z,1.73
2023-03-22T13:02:19.354Z,1.00
2023-03-22T13:05:21.236Z,1.03
2023-03-22T13:08:23.014Z,1.10
2023-03-22T13:11:24.944Z,0.97
2023-03-22T13:15:00.916Z,0.97
2023-03-22T13:18:02.937Z,1.27
2023-03-22T13:21:14.246Z,1.53
2023-03-22T13:24:24.818Z,1.23
2023-03-22T13:27:45.345Z,0.87
2023-03-22T13:30:57.930Z,1.20
2023-03-22T13:34:04.035Z,1.03
2023-03-22T13:37:30.166Z,0.90
2023-03-22T13:40:49.763Z,1.77
2023-03-22T13:43:58.227Z,1.47
2023-03-22T13:47:01.471Z,1.17
2023-03-22T13:50:12.461Z,1.10
2023-03-22T13:53:28.473Z,0.87
2023-03-22T13:56:42.257Z,1.20
2023-03-22T14:00:25.142Z,1.00
2023-03-22T14:03:31.860Z,0.90
2023-03-22T14:06:43.450Z,1.30
2023-03-22T14:09:56.611Z,0.83
2023-03-22T14:13:05.657Z,1.10
2023-03-22T14:16:19.072Z,1.10
2023-03-22T14:19:25.012Z,1.50
